sensor_id;sensor_type;location;lat;lon;timestamp;pressure;altitude;pressure_sealevel;temperature;humidity
54918;BME280;40818;50.562;7.454;2023-06-14T00:06:29;97475.59;;;16.35;48.71
54918;BME280;40818;50.562;7.454;2023-06-14T00:16:34;97479.13;;;15.97;49.76
54918;BME280;40818;50.562;7.454;2023-06-14T00:26:41;97474.06;;;15.85;50.38
54918;BME280;40818;50.562;7.454;2023-06-14T00:36:45;97483.38;;;16.08;49.54
54918;BME280;40818;50.562;7.454;2023-06-14T00:46:51;97477.00;;;16.10;49.01
54918;BME280;40818;50.562;7.454;2023-06-14T00:56:57;97479.13;;;15.87;49.72
54918;BME280;40818;50.562;7.454;2023-06-14T01:07:08;97485.19;;;15.48;50.61
54918;BME280;40818;50.562;7.454;2023-06-14T01:17:14;97485.59;;;15.34;50.72
54918;BME280;40818;50.562;7.454;2023-06-14T01:27:22;97493.16;;;15.27;50.64
54918;BME280;40818;50.562;7.454;2023-06-14T01:37:29;97488.22;;;15.44;49.92
54918;BME280;40818;50.562;7.454;2023-06-14T01:47:38;97487.78;;;15.39;50.23
54918;BME280;40818;50.562;7.454;2023-06-14T01:57:43;97484.22;;;15.20;50.62
54918;BME280;40818;50.562;7.454;2023-06-14T02:07:49;97480.06;;;15.08;50.58
54918;BME280;40818;50.562;7.454;2023-06-14T02:17:53;97479.78;;;15.11;50.23
54918;BME280;40818;50.562;7.454;2023-06-14T02:27:59;97488.34;;;15.23;49.55
54918;BME280;40818;50.562;7.454;2023-06-14T02:38:03;97495.47;;;15.21;49.41
54918;BME280;40818;50.562;7.454;2023-06-14T02:48:09;97494.63;;;15.00;50.38
54918;BME280;40818;50.562;7.454;2023-06-14T02:58:14;97496.75;;;14.76;51.61
54918;BME280;40818;50.562;7.454;2023-06-14T03:08:21;97501.00;;;14.46;52.83
54918;BME280;40818;50.562;7.454;2023-06-14T03:18:29;97506.84;;;14.28;53.83
54918;BME280;40818;50.562;7.454;2023-06-14T03:28:39;97518.38;;;14.05;55.16
54918;BME280;40818;50.562;7.454;2023-06-14T03:38:42;97530.06;;;13.89;56.11
54918;BME280;40818;50.562;7.454;2023-06-14T03:48:50;97535.63;;;13.63;57.69
54918;BME280;40818;50.562;7.454;2023-06-14T03:58:53;97544.69;;;13.80;56.59
54918;BME280;40818;50.562;7.454;2023-06-14T04:09:03;97550.63;;;14.04;56.25
54918;BME280;40818;50.562;7.454;2023-06-14T04:19:07;97567.34;;;14.33;56.02
54918;BME280;40818;50.562;7.454;2023-06-14T04:29:14;97569.56;;;14.38;58.02
54918;BME280;40818;50.562;7.454;2023-06-14T04:39:25;97573.59;;;14.73;57.10
54918;BME280;40818;50.562;7.454;2023-06-14T04:49:31;97580.31;;;14.97;56.59
54918;BME280;40818;50.562;7.454;2023-06-14T04:59:35;97596.75;;;15.09;56.50
54918;BME280;40818;50.562;7.454;2023-06-14T05:09:41;97586.09;;;15.41;55.81
54918;BME280;40818;50.562;7.454;2023-06-14T05:19:45;97596.59;;;15.70;55.18
54918;BME280;40818;50.562;7.454;2023-06-14T05:29:51;97601.06;;;15.99;55.80
54918;BME280;40818;50.562;7.454;2023-06-14T05:39:56;97604.63;;;16.37;53.47
54918;BME280;40818;50.562;7.454;2023-06-14T05:50:02;97606.97;;;16.88;52.80
54918;BME280;40818;50.562;7.454;2023-06-14T06:00:07;97618.38;;;17.44;50.21
54918;BME280;40818;50.562;7.454;2023-06-14T06:10:17;97620.69;;;18.29;48.53
54918;BME280;40818;50.562;7.454;2023-06-14T06:20:21;97625.53;;;18.86;46.66
54918;BME280;40818;50.562;7.454;2023-06-14T06:30:30;97637.06;;;19.20;45.23
54918;BME280;40818;50.562;7.454;2023-06-14T06:40:34;97643.56;;;19.42;45.18
54918;BME280;40818;50.562;7.454;2023-06-14T06:50:40;97647.09;;;20.18;44.45
54918;BME280;40818;50.562;7.454;2023-06-14T07:00:43;97653.44;;;21.14;42.99
54918;BME280;40818;50.562;7.454;2023-06-14T07:10:49;97656.06;;;21.23;41.98
54918;BME280;40818;50.562;7.454;2023-06-14T07:20:53;97666.84;;;20.96;41.72
54918;BME280;40818;50.562;7.454;2023-06-14T07:31:00;97665.25;;;21.75;41.32
54918;BME280;40818;50.562;7.454;2023-06-14T07:41:03;97670.50;;;22.14;39.45
54918;BME280;40818;50.562;7.454;2023-06-14T07:51:09;97667.13;;;22.67;37.75
54918;BME280;40818;50.562;7.454;2023-06-14T08:01:13;97674.03;;;23.66;38.19
54918;BME280;40818;50.562;7.454;2023-06-14T08:11:20;97668.91;;;22.90;35.21
54918;BME280;40818;50.562;7.454;2023-06-14T08:21:24;97675.63;;;22.31;34.25
54918;BME280;40818;50.562;7.454;2023-06-14T08:31:35;97679.38;;;21.90;36.80
54918;BME280;40818;50.562;7.454;2023-06-14T08:41:38;97661.56;;;21.53;36.94
54918;BME280;40818;50.562;7.454;2023-06-14T08:51:44;97664.03;;;21.54;35.36
54918;BME280;40818;50.562;7.454;2023-06-14T09:01:52;97662.84;;;21.65;33.96
54918;BME280;40818;50.562;7.454;2023-06-14T09:11:58;97677.13;;;21.39;33.71
54918;BME280;40818;50.562;7.454;2023-06-14T09:22:03;97680.25;;;21.35;35.23
54918;BME280;40818;50.562;7.454;2023-06-14T09:32:09;97683.94;;;21.73;35.25
54918;BME280;40818;50.562;7.454;2023-06-14T09:42:16;97702.84;;;21.45;38.01
54918;BME280;40818;50.562;7.454;2023-06-14T09:52:24;97690.66;;;22.07;37.15
54918;BME280;40818;50.562;7.454;2023-06-14T10:02:31;97686.16;;;21.61;40.99
54918;BME280;40818;50.562;7.454;2023-06-14T10:12:40;97693.38;;;21.99;39.18
54918;BME280;40818;50.562;7.454;2023-06-14T10:22:49;97678.13;;;22.56;37.37
54918;BME280;40818;50.562;7.454;2023-06-14T10:33:07;97688.41;;;23.27;36.58
54918;BME280;40818;50.562;7.454;2023-06-14T10:43:26;97694.53;;;23.27;35.34
54918;BME280;40818;50.562;7.454;2023-06-14T10:53:39;97701.88;;;23.02;35.20
54918;BME280;40818;50.562;7.454;2023-06-14T11:03:50;97688.34;;;23.86;34.52
54918;BME280;40818;50.562;7.454;2023-06-14T11:13:59;97689.16;;;24.88;32.05
54918;BME280;40818;50.562;7.454;2023-06-14T11:24:03;97707.59;;;24.10;33.37
54918;BME280;40818;50.562;7.454;2023-06-14T11:34:10;97702.25;;;24.97;32.12
54918;BME280;40818;50.562;7.454;2023-06-14T11:44:13;97694.16;;;24.55;32.57
54918;BME280;40818;50.562;7.454;2023-06-14T11:54:19;97693.28;;;23.90;33.09
54918;BME280;40818;50.562;7.454;2023-06-14T12:04:27;97708.88;;;24.36;32.61
54918;BME280;40818;50.562;7.454;2023-06-14T12:14:33;97703.19;;;24.17;34.68
54918;BME280;40818;50.562;7.454;2023-06-14T12:24:36;97706.75;;;23.43;36.35
54918;BME280;40818;50.562;7.454;2023-06-14T12:34:42;97698.38;;;22.48;37.60
54918;BME280;40818;50.562;7.454;2023-06-14T12:44:46;97696.19;;;22.52;37.32
54918;BME280;40818;50.562;7.454;2023-06-14T12:54:52;97705.31;;;21.95;39.45
54918;BME280;40818;50.562;7.454;2023-06-14T13:04:55;97713.25;;;21.39;39.44
54918;BME280;40818;50.562;7.454;2023-06-14T13:15:01;97726.63;;;21.29;39.34
54918;BME280;40818;50.562;7.454;2023-06-14T13:25:06;97728.09;;;21.40;39.43
54918;BME280;40818;50.562;7.454;2023-06-14T13:35:12;97731.44;;;20.59;41.44
54918;BME280;40818;50.562;7.454;2023-06-14T13:45:16;97727.19;;;21.72;40.01
54918;BME280;40818;50.562;7.454;2023-06-14T13:55:22;97730.16;;;21.13;40.08
54918;BME280;40818;50.562;7.454;2023-06-14T14:05:25;97718.09;;;21.75;39.30
54918;BME280;40818;50.562;7.454;2023-06-14T14:15:32;97713.09;;;21.32;39.86
54918;BME280;40818;50.562;7.454;2023-06-14T14:25:36;97716.16;;;20.96;40.60
54918;BME280;40818;50.562;7.454;2023-06-14T14:35:42;97712.34;;;20.98;40.45
54918;BME280;40818;50.562;7.454;2023-06-14T14:45:46;97727.03;;;20.85;40.34
54918;BME280;40818;50.562;7.454;2023-06-14T14:55:52;97722.41;;;20.95;40.72
54918;BME280;40818;50.562;7.454;2023-06-14T15:05:55;97726.53;;;21.06;39.80
54918;BME280;40818;50.562;7.454;2023-06-14T15:16:01;97720.22;;;21.15;39.26
54918;BME280;40818;50.562;7.454;2023-06-14T15:26:05;97727.50;;;20.31;39.51
54918;BME280;40818;50.562;7.454;2023-06-14T15:36:11;97730.13;;;20.47;39.76
54918;BME280;40818;50.562;7.454;2023-06-14T15:46:14;97732.31;;;20.85;38.26
54918;BME280;40818;50.562;7.454;2023-06-14T15:56:20;97725.72;;;20.72;38.82
54918;BME280;40818;50.562;7.454;2023-06-14T16:06:24;97709.69;;;21.15;38.94
54918;BME280;40818;50.562;7.454;2023-06-14T16:16:30;97702.56;;;21.24;39.01
54918;BME280;40818;50.562;7.454;2023-06-14T16:26:33;97715.09;;;20.15;39.91
54918;BME280;40818;50.562;7.454;2023-06-14T16:36:39;97725.31;;;20.26;40.97
54918;BME280;40818;50.562;7.454;2023-06-14T16:46:43;97714.84;;;20.84;39.27
54918;BME280;40818;50.562;7.454;2023-06-14T16:56:49;97727.19;;;20.83;38.27
54918;BME280;40818;50.562;7.454;2023-06-14T17:06:52;97715.66;;;21.01;38.80
54918;BME280;40818;50.562;7.454;2023-06-14T17:16:58;97732.97;;;20.78;39.14
54918;BME280;40818;50.562;7.454;2023-06-14T17:27:02;97743.47;;;20.54;39.31
54918;BME280;40818;50.562;7.454;2023-06-14T17:37:08;97742.06;;;20.00;39.18
54918;BME280;40818;50.562;7.454;2023-06-14T17:47:12;97753.19;;;19.86;40.17
54918;BME280;40818;50.562;7.454;2023-06-14T17:57:18;97756.47;;;19.80;40.55
54918;BME280;40818;50.562;7.454;2023-06-14T18:07:21;97751.38;;;19.52;41.14
54918;BME280;40818;50.562;7.454;2023-06-14T18:17:27;97755.63;;;19.44;41.13
54918;BME280;40818;50.562;7.454;2023-06-14T18:27:31;97773.03;;;19.37;41.50
54918;BME280;40818;50.562;7.454;2023-06-14T18:37:37;97780.25;;;19.35;41.32
54918;BME280;40818;50.562;7.454;2023-06-14T18:47:40;97778.03;;;19.22;41.71
54918;BME280;40818;50.562;7.454;2023-06-14T18:57:46;97794.13;;;19.19;41.62
54918;BME280;40818;50.562;7.454;2023-06-14T19:07:50;97786.94;;;19.03;42.43
54918;BME280;40818;50.562;7.454;2023-06-14T19:17:58;97792.63;;;18.81;42.94
54918;BME280;40818;50.562;7.454;2023-06-14T19:28:04;97794.88;;;18.57;43.55
54918;BME280;40818;50.562;7.454;2023-06-14T19:38:10;97809.38;;;18.43;44.50
54918;BME280;40818;50.562;7.454;2023-06-14T19:48:14;97806.75;;;18.16;44.58
54918;BME280;40818;50.562;7.454;2023-06-14T19:58:20;97820.13;;;17.95;45.25
54918;BME280;40818;50.562;7.454;2023-06-14T20:08:24;97832.09;;;17.69;46.22
54918;BME280;40818;50.562;7.454;2023-06-14T20:18:33;97854.41;;;17.36;48.24
54918;BME280;40818;50.562;7.454;2023-06-14T20:28:37;97862.44;;;17.25;49.12
54918;BME280;40818;50.562;7.454;2023-06-14T20:38:44;97862.84;;;17.00;50.09
54918;BME280;40818;50.562;7.454;2023-06-14T20:48:47;97863.38;;;16.84;50.86
54918;BME280;40818;50.562;7.454;2023-06-14T20:58:53;97862.78;;;16.71;51.26
54918;BME280;40818;50.562;7.454;2023-06-14T21:08:57;97870.34;;;16.64;51.31
54918;BME280;40818;50.562;7.454;2023-06-14T21:19:03;97873.25;;;16.61;51.73
54918;BME280;40818;50.562;7.454;2023-06-14T21:29:07;97866.09;;;16.63;51.83
54918;BME280;40818;50.562;7.454;2023-06-14T21:39:13;97875.44;;;16.56;52.42
54918;BME280;40818;50.562;7.454;2023-06-14T21:49:16;97879.00;;;16.35;53.34
54918;BME280;40818;50.562;7.454;2023-06-14T21:59:22;97888.09;;;16.31;53.78
54918;BME280;40818;50.562;7.454;2023-06-14T22:09:25;97887.19;;;16.21;55.08
54918;BME280;40818;50.562;7.454;2023-06-14T22:19:32;97897.50;;;16.13;56.15
54918;BME280;40818;50.562;7.454;2023-06-14T22:29:37;97892.53;;;16.10;56.43
54918;BME280;40818;50.562;7.454;2023-06-14T22:39:46;97887.97;;;16.02;57.23
54918;BME280;40818;50.562;7.454;2023-06-14T22:49:49;97881.56;;;15.95;58.48
54918;BME280;40818;50.562;7.454;2023-06-14T22:59:56;97882.03;;;15.79;59.59
54918;BME280;40818;50.562;7.454;2023-06-14T23:09:59;97894.28;;;15.57;59.81
54918;BME280;40818;50.562;7.454;2023-06-14T23:20:07;97882.22;;;15.45;60.02
54918;BME280;40818;50.562;7.454;2023-06-14T23:30:10;97873.88;;;15.09;61.34
54918;BME280;40818;50.562;7.454;2023-06-14T23:40:18;97881.56;;;14.78;63.05
54918;BME280;40818;50.562;7.454;2023-06-14T23:50:21;97891.28;;;14.87;62.11
